SKRGSKCL

Guest
Details From SKRG - JOSE MARIA CORDOVA
To SKCL - ALFONSO BONILLA ARAGON INTL
Flight Number -
Tags generated
Created
Modified
Stats Distance 168 nm / 311 km
Max Altitude 20,600 ft / 6,279 m
Waypoints 3
Social Downloads 13
Likes 0
Share VATSIM

Download

Looking for another format? Having issues loading an existing format? Contact us
Advertisement - Login to hide

Notes

Basic altitude profile: - Ascent Rate: 2500ft/min - Ascent Speed: 250kts - Cruise Altitude: 35000ft - Cruise Speed: 420kts - Descent Rate: 1500ft/min - Descent Speed: 250kts Options: - Use NATs: yes - Use PACOTS: yes - Use low airways: yes - Use high airways: yes

Route

SKRG DILAR SKCL

ID Type Via Altitude Latitude Longitude Leg Dist Tot Dist Heading (true) Name
O SKRG APT - 0 ft / 0 m 6.16453˚ -75.42312˚ - 0 nm - JOSE MARIA CORDOVA
DILAR FIX - 20,600 ft / 6,279 m 5.14111˚ -75.85722˚ 66 nm 66 nm 203° / 203° -
O SKCL APT - 0 ft / 0 m 3.54322˚ -76.38159˚ 100 nm 167 nm 198° / 198° ALFONSO BONILLA ARAGON INTL

Altitude Profile

Advertisement - Login to hide

Weather


0- 5 10 15 20 25 30 35+ Temperature / ° C

Clouds and Precipitation
Forecast for 2017-12-13 00:00 UTC. Updated an hour ago

Ground ~20,000 ft ~40,000 ft Winds

SKRG

Details ICAO SKRG (MDE)
Name JOSE MARIA CORDOVA
Region Colombia
Timezone America/Bogota (UTC-5.0)
Stats Elevation 6,955 ft / 2,120 m (AMSL)
Location 6.164532° -75.423119°
Runways 1
Magnetic Variation 6.630° W

METAR

SKRG 122000Z 13006KT 9999 VCSH BKN015TCU 18/15 A3024 REDZ RMK TCU VCSH/NE/S

Decode

TAF

Not found

Departure Runways

ID Width Length Bearing (true) Bearing (mag) Surface Threshold Offset Overrun Length
18 148 ft / 45 m 11,547 ft / 3,520 m 179.62° 186.25° Asphalt 0 ft / 0 m 98 ft / 30 m
36 148 ft / 45 m 11,547 ft / 3,520 m 359.62° 6.25° Asphalt 0 ft / 0 m 98 ft / 30 m

SKCL

Details ICAO SKCL (CLO)
Name ALFONSO BONILLA ARAGON INTL
Region Colombia
Timezone America/Bogota (UTC-5.0)
Stats Elevation 3,162 ft / 964 m (AMSL)
Location 3.543221° -76.381587°
Runways 1
Magnetic Variation 5.582° W

METAR

SKCL 122000Z 31006KT 7000 -DZ SCT017 BKN100 24/22 A2998

Decode

TAF

Not found

Destination Runways

ID Width Length Bearing (true) Bearing (mag) Surface Threshold Offset Overrun Length
01 148 ft / 45 m 9,869 ft / 3,008 m 9.91° 15.49° Asphalt 0 ft / 0 m 50 ft / 15 m
19 148 ft / 45 m 9,869 ft / 3,008 m 189.91° 195.49° Asphalt 0 ft / 0 m 65 ft / 20 m

Approach Navaids

Runway Type Ident Frequency Range Bearing (true) Bearing (mag) Slope Elevation
01 Localiser IPAS 109.90 MHz 18 nm / 33 km 9.69° 15.27° - 3,162 ft / 964 m (AMSL)
01 Glidescope IPAS 109.90 MHz 10 nm / 19 km 9.91° 15.49° 2.50° 3,162 ft / 964 m (AMSL)

Popular Alternatives